Time;durP1;ratioP1;P1;durP2;ratioP2;P2;SDS_P1;SDS_P2;PMS_P1;PMS_P2;Temp;Humidity;BMP_temperature;BMP_pressure;BME280_temperature;BME280_humidity;BME280_pressure;Samples;Min_cycle;Max_cycle;Signal;HPM_P1;HPM_P2
2023/05/07 00:00:18;;;;;;;2.27;1.97;;;;;;;;;;5022143;28;20185;-78
2023/05/07 00:02:45;;;;;;;2.00;1.87;;;;;;;;;;5020854;28;20558;-78
2023/05/07 00:05:11;;;;;;;3.57;2.03;;;;;;;;;;5017704;28;20187;-78
2023/05/07 00:07:38;;;;;;;3.50;1.80;;;;;;;;;;5022486;28;20559;-78
2023/05/07 00:10:06;;;;;;;2.93;2.00;;;;;;;;;;5020101;28;20234;-78
2023/05/07 00:12:33;;;;;;;2.43;2.10;;;;;;;;;;5016962;28;20187;-78
2023/05/07 00:15:00;;;;;;;3.67;2.00;;;;;;;;;;5022136;28;20653;-78
2023/05/07 00:17:26;;;;;;;2.67;2.10;;;;;;;;;;5019103;28;20222;-78
2023/05/07 00:19:52;;;;;;;2.63;1.70;;;;;;;;;;5022094;28;20651;-78
2023/05/07 00:22:18;;;;;;;2.60;1.83;;;;;;;;;;5018758;28;20253;-78
2023/05/07 00:24:44;;;;;;;4.57;2.67;;;;;;;;;;5012571;28;20266;-78
2023/05/07 00:27:10;;;;;;;4.87;3.13;;;;;;;;;;5013395;28;20223;-78
2023/05/07 00:29:37;;;;;;;7.30;3.57;;;;;;;;;;5018432;28;20218;-78
2023/05/07 00:32:03;;;;;;;4.00;3.60;;;;;;;;;;5018832;28;20175;-78
2023/05/07 00:34:29;;;;;;;3.50;3.20;;;;;;;;;;5028431;28;20551;-77
2023/05/07 00:36:55;;;;;;;3.90;3.40;;;;;;;;;;5032219;28;20252;-78
2023/05/07 00:39:21;;;;;;;5.00;3.40;;;;;;;;;;5033433;28;20232;-78
2023/05/07 00:41:47;;;;;;;3.40;3.10;;;;;;;;;;5033178;28;20667;-78
2023/05/07 00:44:14;;;;;;;4.43;2.60;;;;;;;;;;5032805;28;20174;-78
2023/05/07 00:46:40;;;;;;;6.17;4.60;;;;;;;;;;5032947;28;20210;-78
2023/05/07 00:49:07;;;;;;;5.40;3.90;;;;;;;;;;5029305;28;20178;-78
2023/05/07 00:51:33;;;;;;;3.70;2.83;;;;;;;;;;5027606;28;20183;-78
2023/05/07 00:54:01;;;;;;;3.33;2.80;;;;;;;;;;5031506;28;20547;-78
2023/05/07 00:56:28;;;;;;;3.00;2.70;;;;;;;;;;5032630;28;20328;-78
2023/05/07 00:58:55;;;;;;;2.93;2.57;;;;;;;;;;5032887;28;20209;-78
2023/05/07 01:01:21;;;;;;;2.40;2.20;;;;;;;;;;5031664;28;20570;-78
2023/05/07 01:03:47;;;;;;;3.03;2.00;;;;;;;;;;5032691;28;20725;-78
2023/05/07 01:06:16;;;;;;;2.60;2.13;;;;;;;;;;5030467;28;20238;-78
2023/05/07 01:08:42;;;;;;;2.13;1.90;;;;;;;;;;5032686;28;20248;-78
2023/05/07 01:11:09;;;;;;;2.30;2.10;;;;;;;;;;5023617;28;20206;-78
2023/05/07 01:13:35;;;;;;;2.40;2.00;;;;;;;;;;5020729;28;20429;-78
2023/05/07 01:16:02;;;;;;;2.40;1.80;;;;;;;;;;5019524;28;20189;-79
2023/05/07 01:18:29;;;;;;;1.90;1.80;;;;;;;;;;5018213;28;20211;-79
2023/05/07 01:20:58;;;;;;;1.70;1.60;;;;;;;;;;5019212;28;20662;-78
2023/05/07 01:23:26;;;;;;;3.37;2.00;;;;;;;;;;5025658;28;20206;-78
2023/05/07 01:25:52;;;;;;;2.50;2.23;;;;;;;;;;5021009;28;20277;-79
2023/05/07 01:28:20;;;;;;;5.73;2.53;;;;;;;;;;5014506;28;20550;-78
2023/05/07 01:30:48;;;;;;;2.30;2.07;;;;;;;;;;5017737;28;20263;-78
2023/05/07 01:33:18;;;;;;;3.17;2.30;;;;;;;;;;5015360;28;20190;-79
2023/05/07 01:35:47;;;;;;;2.63;2.30;;;;;;;;;;5017085;28;20179;-78
2023/05/07 01:38:13;;;;;;;3.83;2.53;;;;;;;;;;5016528;28;20612;-79
2023/05/07 01:40:39;;;;;;;3.93;3.00;;;;;;;;;;5024384;28;20183;-78
2023/05/07 01:43:06;;;;;;;3.70;2.73;;;;;;;;;;5016199;28;20175;-78
2023/05/07 01:45:34;;;;;;;3.53;3.20;;;;;;;;;;5013770;28;20230;-78
2023/05/07 01:48:01;;;;;;;3.40;2.80;;;;;;;;;;5018373;28;20209;-79
2023/05/07 01:50:27;;;;;;;3.90;3.10;;;;;;;;;;5017912;28;20208;-79
2023/05/07 01:52:54;;;;;;;2.70;2.50;;;;;;;;;;5017014;28;20183;-78
2023/05/07 01:55:20;;;;;;;5.43;3.03;;;;;;;;;;5016683;28;20745;-78
2023/05/07 01:57:46;;;;;;;4.07;3.00;;;;;;;;;;5019687;28;20203;-78
2023/05/07 02:00:12;;;;;;;3.43;2.60;;;;;;;;;;5013934;28;20179;-78
2023/05/07 02:02:41;;;;;;;4.20;2.50;;;;;;;;;;5023344;28;20174;-78
2023/05/07 02:05:12;;;;;;;3.77;2.53;;;;;;;;;;4993886;28;20211;-78
2023/05/07 02:07:40;;;;;;;2.60;2.40;;;;;;;;;;5019039;28;20194;-78
2023/05/07 02:10:07;;;;;;;2.30;2.10;;;;;;;;;;5023940;28;20265;-78
2023/05/07 02:12:33;;;;;;;2.60;2.40;;;;;;;;;;5012368;28;20179;-78
2023/05/07 02:14:59;;;;;;;2.40;2.20;;;;;;;;;;5002029;28;20205;-78
2023/05/07 02:17:25;;;;;;;2.60;2.40;;;;;;;;;;5026463;28;20213;-78
2023/05/07 02:19:52;;;;;;;3.27;2.57;;;;;;;;;;5030535;28;20571;-78
2023/05/07 02:22:18;;;;;;;3.37;2.63;;;;;;;;;;5017014;28;20205;-79
2023/05/07 02:24:44;;;;;;;4.23;3.03;;;;;;;;;;5030367;28;20277;-78
2023/05/07 02:27:10;;;;;;;3.50;2.70;;;;;;;;;;5008944;28;20218;-78
2023/05/07 02:29:37;;;;;;;2.97;2.77;;;;;;;;;;5024481;28;20178;-78
2023/05/07 02:32:03;;;;;;;5.90;2.97;;;;;;;;;;5017261;28;20179;-78
2023/05/07 02:34:30;;;;;;;3.27;2.90;;;;;;;;;;5013073;28;20209;-78
2023/05/07 02:36:56;;;;;;;3.60;3.30;;;;;;;;;;5012661;28;20210;-78
2023/05/07 02:39:25;;;;;;;3.53;3.23;;;;;;;;;;5018183;28;20721;-78
2023/05/07 02:41:51;;;;;;;4.07;3.60;;;;;;;;;;5027795;28;20182;-78
2023/05/07 02:44:17;;;;;;;4.10;3.60;;;;;;;;;;5029288;28;20179;-78
2023/05/07 02:46:46;;;;;;;4.30;3.90;;;;;;;;;;4998596;28;20215;-79
2023/05/07 02:49:13;;;;;;;4.27;3.60;;;;;;;;;;5027300;28;20170;-79
2023/05/07 02:51:39;;;;;;;5.20;3.90;;;;;;;;;;5029340;28;20229;-79
2023/05/07 02:54:10;;;;;;;4.13;3.73;;;;;;;;;;5028874;28;20194;-78
2023/05/07 02:56:36;;;;;;;5.60;3.80;;;;;;;;;;5017185;28;20218;-78
2023/05/07 02:59:03;;;;;;;3.93;3.63;;;;;;;;;;5010930;28;20186;-78
2023/05/07 03:01:33;;;;;;;4.27;3.53;;;;;;;;;;5009814;28;20559;-78
2023/05/07 03:04:03;;;;;;;4.20;3.63;;;;;;;;;;5008731;28;20230;-79
2023/05/07 03:06:30;;;;;;;4.10;3.70;;;;;;;;;;4996700;28;20207;-79
2023/05/07 03:08:56;;;;;;;3.97;3.57;;;;;;;;;;5021840;28;20175;-78
2023/05/07 03:11:22;;;;;;;3.90;3.50;;;;;;;;;;5029052;28;20181;-78
2023/05/07 03:13:49;;;;;;;5.03;3.70;;;;;;;;;;5029154;28;20185;-79
2023/05/07 03:16:17;;;;;;;4.87;3.30;;;;;;;;;;5008306;28;20642;-78
2023/05/07 03:18:43;;;;;;;4.33;3.73;;;;;;;;;;5029265;28;20665;-78
2023/05/07 03:21:09;;;;;;;4.47;3.57;;;;;;;;;;5030140;28;20244;-79
2023/05/07 03:23:35;;;;;;;3.63;3.33;;;;;;;;;;5029928;28;20236;-78
2023/05/07 03:26:01;;;;;;;5.93;3.40;;;;;;;;;;5027659;28;20229;-78
2023/05/07 03:28:28;;;;;;;3.23;2.93;;;;;;;;;;5023094;28;20224;-79
2023/05/07 03:30:59;;;;;;;3.73;3.30;;;;;;;;;;5010469;28;20222;-78
2023/05/07 03:33:27;;;;;;;3.50;3.20;;;;;;;;;;5025198;28;20549;-78
2023/05/07 03:35:53;;;;;;;3.87;3.43;;;;;;;;;;5018079;28;20662;-78
2023/05/07 03:38:23;;;;;;;3.93;3.10;;;;;;;;;;5018354;28;20325;-78
2023/05/07 03:40:49;;;;;;;5.40;3.40;;;;;;;;;;5013203;28;20195;-79
2023/05/07 03:43:16;;;;;;;4.03;3.57;;;;;;;;;;5006036;28;20205;-79
2023/05/07 03:45:47;;;;;;;4.77;3.90;;;;;;;;;;5020885;28;20210;-79
2023/05/07 03:48:18;;;;;;;5.67;4.00;;;;;;;;;;5018391;28;20302;-79
2023/05/07 03:50:46;;;;;;;4.90;4.40;;;;;;;;;;5025832;28;20193;-78
2023/05/07 03:53:12;;;;;;;5.03;4.30;;;;;;;;;;5015688;28;20178;-78
2023/05/07 03:55:39;;;;;;;6.20;4.37;;;;;;;;;;5017998;28;20198;-78
2023/05/07 03:58:05;;;;;;;4.57;4.17;;;;;;;;;;5020829;28;20210;-78
2023/05/07 04:00:36;;;;;;;4.57;3.83;;;;;;;;;;5031052;28;20286;-79
2023/05/07 04:03:06;;;;;;;4.43;3.90;;;;;;;;;;5023963;28;20182;-78
2023/05/07 04:05:32;;;;;;;5.77;4.10;;;;;;;;;;5022029;28;20276;-79
2023/05/07 04:08:02;;;;;;;4.30;3.90;;;;;;;;;;5022904;28;20507;-79
2023/05/07 04:10:35;;;;;;;4.57;4.10;;;;;;;;;;5019573;28;20197;-79
2023/05/07 04:13:06;;;;;;;4.20;3.70;;;;;;;;;;5019677;28;20266;-78
2023/05/07 04:15:32;;;;;;;4.30;3.90;;;;;;;;;;5017777;28;20191;-78
2023/05/07 04:17:59;;;;;;;5.07;4.60;;;;;;;;;;5024010;28;20360;-78
2023/05/07 04:20:25;;;;;;;4.70;4.30;;;;;;;;;;5019409;28;20205;-78
2023/05/07 04:22:58;;;;;;;4.80;4.40;;;;;;;;;;5003830;28;20186;-79
2023/05/07 04:25:26;;;;;;;6.93;4.70;;;;;;;;;;5017588;28;20269;-78
2023/05/07 04:27:55;;;;;;;8.20;4.80;;;;;;;;;;5019964;28;20284;-78
2023/05/07 04:30:24;;;;;;;4.70;4.30;;;;;;;;;;5016386;28;20664;-78
2023/05/07 04:32:51;;;;;;;4.87;4.40;;;;;;;;;;5017393;28;20179;-78
2023/05/07 04:35:17;;;;;;;5.60;4.70;;;;;;;;;;5018700;28;20178;-78
2023/05/07 04:37:43;;;;;;;5.70;3.90;;;;;;;;;;5019067;28;20239;-78
2023/05/07 04:40:10;;;;;;;6.03;4.23;;;;;;;;;;5024720;28;20179;-78
2023/05/07 04:42:36;;;;;;;5.00;4.50;;;;;;;;;;5005737;28;20183;-79
2023/05/07 04:45:04;;;;;;;7.70;5.30;;;;;;;;;;5000009;28;20183;-78
2023/05/07 04:47:32;;;;;;;7.73;5.47;;;;;;;;;;5012252;28;20202;-78
2023/05/07 04:50:00;;;;;;;5.87;5.20;;;;;;;;;;5012606;28;20181;-79
2023/05/07 04:52:27;;;;;;;6.20;5.07;;;;;;;;;;4997359;28;20266;-79
2023/05/07 04:54:53;;;;;;;5.10;4.60;;;;;;;;;;5026872;28;20195;-79
2023/05/07 04:57:19;;;;;;;5.00;4.50;;;;;;;;;;5023083;28;20198;-78
2023/05/07 04:59:45;;;;;;;5.27;4.70;;;;;;;;;;5000561;28;20207;-79
2023/05/07 05:02:12;;;;;;;4.80;4.30;;;;;;;;;;5030069;28;20183;-79
2023/05/07 05:04:38;;;;;;;5.00;4.30;;;;;;;;;;5017434;28;20195;-79
2023/05/07 05:07:05;;;;;;;5.23;4.03;;;;;;;;;;5018264;28;20218;-78
2023/05/07 05:09:32;;;;;;;4.83;4.10;;;;;;;;;;5017641;28;20187;-78
2023/05/07 05:11:59;;;;;;;4.20;3.80;;;;;;;;;;5015636;28;20712;-79
2023/05/07 05:14:25;;;;;;;6.00;4.30;;;;;;;;;;5020850;28;20487;-78
2023/05/07 05:16:52;;;;;;;4.60;3.77;;;;;;;;;;5019129;28;20685;-78
2023/05/07 05:19:19;;;;;;;3.83;3.50;;;;;;;;;;5017964;28;20318;-79
2023/05/07 05:21:45;;;;;;;3.90;3.50;;;;;;;;;;5004889;28;20190;-78
2023/05/07 05:24:12;;;;;;;3.60;3.30;;;;;;;;;;5020463;28;20654;-78
2023/05/07 05:26:39;;;;;;;3.33;2.80;;;;;;;;;;5018879;28;20611;-78
2023/05/07 05:29:06;;;;;;;3.30;3.00;;;;;;;;;;5018829;28;20183;-78
2023/05/07 05:31:33;;;;;;;3.60;2.80;;;;;;;;;;5018749;28;20175;-79
2023/05/07 05:33:59;;;;;;;4.13;2.60;;;;;;;;;;5016350;28;20231;-78
2023/05/07 05:36:26;;;;;;;2.93;2.73;;;;;;;;;;5021258;28;20186;-78
2023/05/07 05:38:56;;;;;;;3.53;2.60;;;;;;;;;;5021587;28;20875;-78
2023/05/07 05:41:22;;;;;;;3.80;2.90;;;;;;;;;;5020408;28;20495;-78
2023/05/07 05:43:50;;;;;;;3.23;2.60;;;;;;;;;;5016365;28;20266;-78
2023/05/07 05:46:16;;;;;;;2.60;2.40;;;;;;;;;;5019378;28;20546;-78
2023/05/07 05:48:43;;;;;;;2.90;2.30;;;;;;;;;;5000292;28;20686;-78
2023/05/07 05:51:10;;;;;;;2.83;2.47;;;;;;;;;;5013415;28;20262;-80
2023/05/07 05:53:37;;;;;;;2.70;2.50;;;;;;;;;;5024727;28;20186;-79
2023/05/07 05:56:03;;;;;;;3.70;2.47;;;;;;;;;;5017116;28;20686;-79
2023/05/07 05:58:31;;;;;;;2.37;2.17;;;;;;;;;;5016398;28;20226;-79
2023/05/07 06:01:02;;;;;;;2.57;2.17;;;;;;;;;;5015130;28;20187;-79
2023/05/07 06:03:29;;;;;;;2.60;2.20;;;;;;;;;;5020909;28;20194;-79
2023/05/07 06:05:59;;;;;;;2.50;2.30;;;;;;;;;;5019241;28;20225;-78
2023/05/07 06:08:26;;;;;;;3.27;2.20;;;;;;;;;;5013429;28;20249;-79
2023/05/07 06:10:52;;;;;;;2.60;2.00;;;;;;;;;;5019061;28;20498;-79
2023/05/07 06:13:18;;;;;;;2.43;1.93;;;;;;;;;;5015781;28;20194;-78
2023/05/07 06:15:45;;;;;;;2.43;2.23;;;;;;;;;;5021534;28;20188;-82
2023/05/07 06:18:13;;;;;;;2.63;2.00;;;;;;;;;;5030312;28;20202;-77
2023/05/07 06:20:39;;;;;;;2.10;1.90;;;;;;;;;;5022556;28;20254;-78
2023/05/07 06:23:11;;;;;;;2.10;1.90;;;;;;;;;;5021726;28;20183;-74
2023/05/07 06:25:37;;;;;;;2.40;2.20;;;;;;;;;;5020807;28;20205;-74
2023/05/07 06:28:04;;;;;;;2.70;2.50;;;;;;;;;;5011803;28;20202;-76
2023/05/07 06:30:32;;;;;;;2.53;2.33;;;;;;;;;;5006879;28;20265;-75
2023/05/07 06:32:59;;;;;;;2.37;2.10;;;;;;;;;;5020994;28;20562;-75
2023/05/07 06:35:26;;;;;;;3.03;2.50;;;;;;;;;;5010342;28;20183;-75
2023/05/07 06:37:53;;;;;;;2.40;2.20;;;;;;;;;;5010498;28;20730;-75
2023/05/07 06:40:23;;;;;;;2.77;2.57;;;;;;;;;;5010469;28;20573;-75
2023/05/07 06:42:50;;;;;;;3.50;2.87;;;;;;;;;;5010258;28;20202;-75
2023/05/07 06:45:36;;;;;;;3.97;2.50;;;;;;;;;;5019344;28;20306;-75
2023/05/07 06:48:04;;;;;;;2.70;2.50;;;;;;;;;;5021796;28;20199;-75
2023/05/07 06:50:34;;;;;;;3.17;2.70;;;;;;;;;;5020324;28;20563;-75
2023/05/07 06:53:00;;;;;;;3.37;2.77;;;;;;;;;;5022083;28;20661;-76
2023/05/07 06:55:27;;;;;;;5.03;2.80;;;;;;;;;;5013825;28;20210;-75
2023/05/07 06:57:54;;;;;;;2.97;2.40;;;;;;;;;;5029629;28;20194;-75
2023/05/07 07:00:22;;;;;;;3.40;3.10;;;;;;;;;;5026951;28;20190;-75
2023/05/07 07:02:52;;;;;;;4.70;3.07;;;;;;;;;;5011817;28;20194;-75
2023/05/07 07:05:21;;;;;;;3.83;3.53;;;;;;;;;;5010926;28;20643;-75
2023/05/07 07:07:52;;;;;;;3.60;3.23;;;;;;;;;;5022452;28;20627;-75
2023/05/07 07:10:22;;;;;;;3.90;3.50;;;;;;;;;;5019821;28;20191;-75
2023/05/07 07:12:50;;;;;;;3.50;2.50;;;;;;;;;;5027054;28;20183;-75
2023/05/07 07:15:17;;;;;;;3.07;2.80;;;;;;;;;;5028952;28;20680;-75
2023/05/07 07:17:44;;;;;;;3.63;2.70;;;;;;;;;;5013913;28;20682;-74
2023/05/07 07:20:10;;;;;;;3.53;2.67;;;;;;;;;;5027361;28;20654;-73
2023/05/07 07:22:36;;;;;;;3.93;2.53;;;;;;;;;;5020573;28;20267;-76
2023/05/07 07:25:03;;;;;;;4.20;3.33;;;;;;;;;;5033644;28;20321;-78
2023/05/07 07:27:29;;;;;;;3.90;3.50;;;;;;;;;;5018793;28;20225;-79
2023/05/07 07:29:56;;;;;;;3.77;3.40;;;;;;;;;;5032718;28;20187;-76
2023/05/07 07:32:23;;;;;;;3.80;3.40;;;;;;;;;;5023180;28;20183;-79
2023/05/07 07:34:49;;;;;;;3.50;3.20;;;;;;;;;;5023981;28;20187;-76
2023/05/07 07:37:15;;;;;;;3.43;3.00;;;;;;;;;;5027744;28;20206;-76
2023/05/07 07:39:41;;;;;;;3.20;2.80;;;;;;;;;;5031777;28;20193;-75
2023/05/07 07:42:08;;;;;;;3.77;3.33;;;;;;;;;;5024815;28;20205;-76
2023/05/07 07:44:34;;;;;;;4.13;3.70;;;;;;;;;;5023128;28;20660;-75
2023/05/07 07:47:06;;;;;;;3.93;3.33;;;;;;;;;;5025799;28;20306;-75
2023/05/07 07:49:33;;;;;;;3.40;3.10;;;;;;;;;;5027226;28;20182;-76
2023/05/07 07:52:03;;;;;;;3.80;3.30;;;;;;;;;;5031782;28;20236;-76
2023/05/07 07:54:30;;;;;;;3.50;3.20;;;;;;;;;;5032503;28;20190;-75
2023/05/07 07:56:56;;;;;;;3.77;3.20;;;;;;;;;;5026075;28;20466;-76
2023/05/07 07:59:23;;;;;;;3.73;3.10;;;;;;;;;;5013452;28;20208;-76
2023/05/07 08:01:52;;;;;;;5.23;2.97;;;;;;;;;;5025537;28;20252;-76
2023/05/07 08:04:18;;;;;;;3.30;3.00;;;;;;;;;;5033448;28;20190;-76
2023/05/07 08:06:45;;;;;;;3.23;2.83;;;;;;;;;;5012268;28;20210;-75
2023/05/07 08:09:11;;;;;;;3.47;3.00;;;;;;;;;;5023344;28;20179;-76
2023/05/07 08:11:40;;;;;;;3.57;3.03;;;;;;;;;;5029642;28;20187;-77
2023/05/07 08:14:06;;;;;;;3.13;2.83;;;;;;;;;;5030096;28;20610;-74
2023/05/07 08:16:33;;;;;;;2.97;2.73;;;;;;;;;;5028826;28;20190;-77
2023/05/07 08:19:00;;;;;;;4.67;2.83;;;;;;;;;;5009473;28;20191;-76
2023/05/07 08:21:27;;;;;;;4.20;2.40;;;;;;;;;;5031914;28;20187;-78
2023/05/07 08:23:53;;;;;;;3.63;2.73;;;;;;;;;;5028163;28;20225;-74
2023/05/07 08:26:20;;;;;;;3.20;2.60;;;;;;;;;;5014302;28;20301;-75
2023/05/07 08:28:47;;;;;;;3.00;2.70;;;;;;;;;;5027475;28;20213;-75
2023/05/07 08:31:13;;;;;;;2.87;2.67;;;;;;;;;;5030819;28;20201;-75
2023/05/07 08:33:41;;;;;;;2.87;2.37;;;;;;;;;;5009709;28;20578;-75
2023/05/07 08:36:07;;;;;;;2.70;2.50;;;;;;;;;;5023065;28;20667;-74
2023/05/07 08:38:34;;;;;;;3.13;2.70;;;;;;;;;;5037744;28;20210;-75
2023/05/07 08:41:00;;;;;;;3.90;2.73;;;;;;;;;;5021553;28;20614;-75
2023/05/07 08:43:29;;;;;;;3.00;2.70;;;;;;;;;;5037215;28;20191;-75
2023/05/07 08:45:55;;;;;;;3.00;2.73;;;;;;;;;;5015211;28;20191;-75
2023/05/07 08:48:26;;;;;;;3.70;2.80;;;;;;;;;;5028130;28;20195;-75
2023/05/07 08:50:59;;;;;;;3.10;2.50;;;;;;;;;;5031621;28;20185;-74
2023/05/07 08:53:26;;;;;;;5.37;2.80;;;;;;;;;;5027973;28;20245;-74
2023/05/07 08:55:53;;;;;;;3.27;2.90;;;;;;;;;;5035690;28;20214;-74
2023/05/07 08:58:19;;;;;;;3.30;2.80;;;;;;;;;;5026483;28;20214;-75
2023/05/07 09:00:47;;;;;;;2.80;2.60;;;;;;;;;;5017422;28;20178;-75
2023/05/07 09:03:14;;;;;;;2.47;2.27;;;;;;;;;;5030967;28;20186;-75
2023/05/07 09:05:44;;;;;;;4.40;2.30;;;;;;;;;;5023026;28;20210;-75
2023/05/07 09:08:15;;;;;;;2.50;2.30;;;;;;;;;;5025879;28;20206;-74
2023/05/07 09:10:42;;;;;;;4.47;2.70;;;;;;;;;;5023727;28;20290;-74
2023/05/07 09:13:10;;;;;;;2.57;2.37;;;;;;;;;;5022434;28;20273;-76
2023/05/07 09:15:36;;;;;;;3.10;2.70;;;;;;;;;;5013685;28;20609;-76
2023/05/07 09:18:03;;;;;;;3.63;2.70;;;;;;;;;;5018904;28;20285;-77
2023/05/07 09:20:33;;;;;;;2.93;2.53;;;;;;;;;;5022401;28;20193;-76
2023/05/07 09:23:00;;;;;;;2.67;2.43;;;;;;;;;;5028548;28;20722;-76
2023/05/07 09:25:29;;;;;;;3.10;2.30;;;;;;;;;;5025564;28;20189;-76
2023/05/07 09:27:55;;;;;;;3.60;2.40;;;;;;;;;;5027028;28;20249;-76
2023/05/07 09:30:21;;;;;;;2.20;2.00;;;;;;;;;;5024552;28;20191;-76
2023/05/07 09:32:49;;;;;;;2.60;2.40;;;;;;;;;;5025794;28;20205;-77
2023/05/07 09:35:21;;;;;;;3.73;2.40;;;;;;;;;;5026285;28;20665;-77
2023/05/07 09:37:52;;;;;;;3.70;2.00;;;;;;;;;;5025202;28;20206;-77
2023/05/07 09:40:23;;;;;;;2.07;1.93;;;;;;;;;;5028308;28;20178;-78
2023/05/07 09:42:50;;;;;;;2.77;2.10;;;;;;;;;;5027465;28;20183;-75
2023/05/07 09:45:21;;;;;;;2.33;1.80;;;;;;;;;;5028426;28;20309;-76
2023/05/07 09:47:49;;;;;;;3.10;2.10;;;;;;;;;;5021245;28;20268;-77
2023/05/07 09:50:15;;;;;;;2.37;2.00;;;;;;;;;;5028496;28;20183;-76
2023/05/07 09:52:42;;;;;;;3.07;2.50;;;;;;;;;;5027679;28;20187;-77
2023/05/07 09:55:10;;;;;;;4.47;2.30;;;;;;;;;;5028268;28;20720;-76
2023/05/07 09:57:37;;;;;;;3.13;2.10;;;;;;;;;;5025476;28;20704;-77
2023/05/07 10:00:08;;;;;;;2.30;2.10;;;;;;;;;;5028295;28;20655;-76
2023/05/07 10:02:49;;;;;;;2.47;1.93;;;;;;;;;;5024889;28;20215;-76
2023/05/07 10:05:16;;;;;;;2.37;2.00;;;;;;;;;;5029148;28;20751;-76
2023/05/07 10:07:43;;;;;;;2.10;1.90;;;;;;;;;;5030079;28;20586;-76
2023/05/07 10:10:10;;;;;;;2.80;1.77;;;;;;;;;;5030116;28;20180;-76
2023/05/07 10:12:41;;;;;;;2.70;2.00;;;;;;;;;;5029634;28;20183;-76
2023/05/07 10:15:14;;;;;;;3.13;1.90;;;;;;;;;;5025847;28;20225;-77
2023/05/07 10:17:43;;;;;;;2.20;2.00;;;;;;;;;;5028251;28;20207;-77
2023/05/07 10:20:11;;;;;;;2.73;1.90;;;;;;;;;;5020060;28;20277;-77
2023/05/07 10:22:42;;;;;;;2.10;1.67;;;;;;;;;;5042760;28;20188;-77
2023/05/07 10:25:18;;;;;;;1.97;1.80;;;;;;;;;;5022543;28;20252;-76
2023/05/07 10:27:47;;;;;;;1.93;1.83;;;;;;;;;;5020806;28;20217;-77
2023/05/07 10:30:32;;;;;;;2.30;2.10;;;;;;;;;;5025282;28;20206;-77
2023/05/07 10:33:05;;;;;;;4.27;2.03;;;;;;;;;;5026352;28;20191;-77
2023/05/07 10:35:36;;;;;;;7.47;5.73;;;;;;;;;;5023320;28;20232;-76
2023/05/07 10:38:03;;;;;;;4.03;3.63;;;;;;;;;;5030110;28;20265;-78
2023/05/07 10:40:32;;;;;;;2.93;2.00;;;;;;;;;;5028030;28;20773;-77
2023/05/07 10:43:00;;;;;;;3.10;2.77;;;;;;;;;;5024308;28;20626;-78
2023/05/07 10:45:30;;;;;;;3.60;2.33;;;;;;;;;;5019459;28;20190;-78
2023/05/07 10:48:17;;;;;;;2.87;2.67;;;;;;;;;;5021344;28;20293;-78
2023/05/07 10:50:49;;;;;;;2.43;2.00;;;;;;;;;;5030396;28;20190;-78
2023/05/07 10:53:18;;;;;;;3.43;1.83;;;;;;;;;;4995052;28;20296;-78
2023/05/07 10:56:12;;;;;;;2.97;2.67;;;;;;;;;;5008669;28;20209;-78
2023/05/07 10:58:44;;;;;;;2.80;2.60;;;;;;;;;;5006095;28;20221;-78
2023/05/07 11:01:57;;;;;;;2.60;2.40;;;;;;;;;;5037031;28;20190;-78
2023/05/07 11:04:38;;;;;;;2.27;1.83;;;;;;;;;;5016311;28;20666;-78
2023/05/07 11:07:28;;;;;;;3.97;2.40;;;;;;;;;;5032281;28;20230;-79
2023/05/07 11:10:04;;;;;;;1.90;1.80;;;;;;;;;;5024358;28;20265;-79
2023/05/07 11:12:41;;;;;;;2.03;1.93;;;;;;;;;;5023835;28;20215;-78
2023/05/07 11:15:16;;;;;;;2.53;2.10;;;;;;;;;;5009864;28;20835;-78
2023/05/07 11:17:53;;;;;;;3.00;2.20;;;;;;;;;;5020645;28;20214;-78
2023/05/07 11:20:20;;;;;;;2.67;1.80;;;;;;;;;;5022447;28;20197;-78
2023/05/07 11:22:55;;;;;;;2.17;1.97;;;;;;;;;;5029042;28;20668;-77
2023/05/07 11:25:41;;;;;;;2.07;1.90;;;;;;;;;;5027158;28;20286;-78
2023/05/07 11:28:15;;;;;;;2.93;1.93;;;;;;;;;;5027577;28;20202;-77
2023/05/07 11:31:00;;;;;;;1.83;1.60;;;;;;;;;;5014428;28;20666;-79
2023/05/07 11:33:27;;;;;;;2.20;1.83;;;;;;;;;;5009552;28;20712;-82
2023/05/07 11:35:54;;;;;;;2.13;1.93;;;;;;;;;;5026296;28;20248;-78
2023/05/07 11:38:23;;;;;;;3.97;2.10;;;;;;;;;;5021308;28;20214;-77
2023/05/07 11:40:51;;;;;;;3.93;1.93;;;;;;;;;;5023910;28;20182;-78
2023/05/07 11:43:17;;;;;;;2.00;1.80;;;;;;;;;;5026538;28;20186;-78
2023/05/07 11:45:43;;;;;;;2.00;1.80;;;;;;;;;;5020771;28;20253;-77
2023/05/07 11:48:09;;;;;;;2.40;2.00;;;;;;;;;;5021887;28;20215;-78
2023/05/07 11:50:35;;;;;;;3.20;1.90;;;;;;;;;;5029709;28;20673;-77
2023/05/07 11:53:08;;;;;;;3.20;2.10;;;;;;;;;;5028378;28;20186;-78
2023/05/07 11:55:34;;;;;;;3.50;2.20;;;;;;;;;;5020277;28;20214;-77
2023/05/07 11:58:00;;;;;;;2.50;2.00;;;;;;;;;;5024306;28;20199;-77
2023/05/07 12:00:26;;;;;;;2.63;2.07;;;;;;;;;;5021787;28;20642;-78
2023/05/07 12:02:52;;;;;;;2.27;1.97;;;;;;;;;;5028076;28;20183;-78
2023/05/07 12:05:18;;;;;;;2.53;2.20;;;;;;;;;;5028392;28;20211;-78
2023/05/07 12:07:44;;;;;;;4.97;1.90;;;;;;;;;;5031317;28;20224;-78
2023/05/07 12:10:12;;;;;;;3.67;2.20;;;;;;;;;;5032008;28;20231;-77
2023/05/07 12:12:40;;;;;;;2.13;1.93;;;;;;;;;;5015563;28;20183;-77
2023/05/07 12:15:06;;;;;;;4.03;2.00;;;;;;;;;;5014061;28;20179;-77
2023/05/07 12:17:33;;;;;;;2.30;2.10;;;;;;;;;;5024517;28;20221;-77
2023/05/07 12:19:59;;;;;;;2.30;2.00;;;;;;;;;;5028166;28;20217;-78
2023/05/07 12:22:25;;;;;;;5.07;2.00;;;;;;;;;;5033652;28;20186;-77
2023/05/07 12:24:58;;;;;;;1.80;1.70;;;;;;;;;;5034004;28;20250;-77
2023/05/07 12:27:24;;;;;;;4.03;1.73;;;;;;;;;;5026998;28;20309;-78
2023/05/07 12:29:51;;;;;;;2.33;1.60;;;;;;;;;;5034605;28;20179;-78
2023/05/07 12:32:18;;;;;;;1.80;1.70;;;;;;;;;;5025657;28;20180;-78
2023/05/07 12:34:44;;;;;;;2.50;1.70;;;;;;;;;;5026430;28;20188;-78
2023/05/07 12:37:11;;;;;;;1.80;1.67;;;;;;;;;;5031379;28;20214;-79
2023/05/07 12:39:37;;;;;;;3.43;1.40;;;;;;;;;;5015823;28;20199;-78
2023/05/07 12:42:03;;;;;;;1.67;1.57;;;;;;;;;;5027704;28;20221;-78
2023/05/07 12:44:30;;;;;;;2.30;1.70;;;;;;;;;;5030315;28;20193;-78
2023/05/07 12:46:56;;;;;;;2.17;1.80;;;;;;;;;;5029120;28;20840;-78
2023/05/07 12:49:23;;;;;;;1.80;1.70;;;;;;;;;;5030448;28;20183;-79
2023/05/07 12:51:49;;;;;;;2.00;1.60;;;;;;;;;;5031137;28;20263;-78
2023/05/07 12:54:29;;;;;;;2.30;1.57;;;;;;;;;;5030212;28;20242;-78
2023/05/07 12:57:05;;;;;;;1.60;1.50;;;;;;;;;;5027331;28;20233;-78
2023/05/07 12:59:32;;;;;;;2.17;1.80;;;;;;;;;;5024694;28;20181;-78
2023/05/07 13:01:58;;;;;;;2.27;1.53;;;;;;;;;;5024538;28;20202;-78
2023/05/07 13:04:25;;;;;;;1.90;1.60;;;;;;;;;;5030768;28;20848;-78
2023/05/07 13:06:52;;;;;;;2.13;1.73;;;;;;;;;;5028512;28;20566;-78
2023/05/07 13:09:18;;;;;;;1.90;1.70;;;;;;;;;;5030317;28;20192;-78
2023/05/07 13:11:44;;;;;;;3.77;1.70;;;;;;;;;;5028081;28;20189;-78
2023/05/07 13:14:10;;;;;;;1.80;1.70;;;;;;;;;;5030004;28;20240;-78
2023/05/07 13:16:36;;;;;;;1.77;1.67;;;;;;;;;;5030264;28;20275;-78
2023/05/07 13:19:02;;;;;;;7.50;2.23;;;;;;;;;;5025795;28;20193;-78
2023/05/07 13:21:30;;;;;;;7.67;2.13;;;;;;;;;;5026827;28;20186;-78
2023/05/07 13:23:57;;;;;;;5.67;1.70;;;;;;;;;;5019555;28;20291;-78
2023/05/07 13:26:24;;;;;;;2.30;1.50;;;;;;;;;;5031106;28;20202;-78
2023/05/07 13:28:51;;;;;;;1.50;1.40;;;;;;;;;;5032558;28;20196;-78
2023/05/07 13:31:17;;;;;;;3.53;1.60;;;;;;;;;;5031805;28;20222;-78
2023/05/07 13:33:44;;;;;;;1.90;1.70;;;;;;;;;;5016132;28;20213;-77
2023/05/07 13:36:10;;;;;;;1.90;1.70;;;;;;;;;;5027642;28;20230;-78
2023/05/07 13:38:36;;;;;;;2.93;1.73;;;;;;;;;;5027076;28;20230;-77
2023/05/07 13:41:02;;;;;;;2.00;1.80;;;;;;;;;;5022876;28;20529;-77
2023/05/07 13:43:28;;;;;;;3.77;2.00;;;;;;;;;;5028378;28;20183;-77
2023/05/07 13:45:55;;;;;;;2.10;1.90;;;;;;;;;;5026750;28;20206;-77
2023/05/07 13:48:21;;;;;;;2.43;2.10;;;;;;;;;;5031205;28;20543;-78
2023/05/07 13:50:47;;;;;;;2.87;2.40;;;;;;;;;;5029990;28;20256;-80
2023/05/07 13:53:15;;;;;;;2.17;1.97;;;;;;;;;;5022744;28;20669;-78
2023/05/07 13:55:41;;;;;;;2.40;2.20;;;;;;;;;;5028251;28;20182;-78
2023/05/07 13:58:07;;;;;;;3.30;2.60;;;;;;;;;;5011051;28;20203;-78
2023/05/07 14:00:34;;;;;;;3.53;2.20;;;;;;;;;;5023422;28;20665;-78
2023/05/07 14:03:00;;;;;;;3.03;2.73;;;;;;;;;;5025337;28;20222;-78
2023/05/07 14:05:27;;;;;;;3.60;2.50;;;;;;;;;;5025517;28;20179;-78
2023/05/07 14:07:56;;;;;;;3.50;2.43;;;;;;;;;;4998164;28;20202;-78
2023/05/07 14:10:22;;;;;;;3.00;2.40;;;;;;;;;;5021393;28;20642;-77
2023/05/07 14:12:49;;;;;;;2.47;2.27;;;;;;;;;;5003145;28;20288;-77
2023/05/07 14:15:15;;;;;;;3.73;2.30;;;;;;;;;;5019963;28;20279;-77
2023/05/07 14:17:42;;;;;;;3.90;2.60;;;;;;;;;;5019911;28;20210;-77
2023/05/07 14:20:10;;;;;;;5.13;2.50;;;;;;;;;;5020336;28;20269;-77
2023/05/07 14:22:36;;;;;;;2.87;2.60;;;;;;;;;;5021114;28;20275;-77
2023/05/07 14:25:02;;;;;;;2.60;2.40;;;;;;;;;;5005173;28;20195;-77
2023/05/07 14:27:29;;;;;;;3.60;2.53;;;;;;;;;;5028580;28;20241;-77
2023/05/07 14:29:55;;;;;;;4.47;2.80;;;;;;;;;;5027639;28;20192;-77
2023/05/07 14:32:21;;;;;;;2.83;2.47;;;;;;;;;;5028948;28;20307;-77
2023/05/07 14:34:47;;;;;;;2.63;2.43;;;;;;;;;;5031409;28;20636;-77
2023/05/07 14:37:14;;;;;;;3.00;2.80;;;;;;;;;;5030025;28;20571;-78
2023/05/07 14:39:40;;;;;;;5.27;3.27;;;;;;;;;;5029324;28;20228;-77
2023/05/07 14:42:07;;;;;;;12.27;4.27;;;;;;;;;;5027807;28;20260;-79
2023/05/07 14:44:34;;;;;;;10.97;3.87;;;;;;;;;;5026536;28;20191;-77
2023/05/07 14:47:01;;;;;;;5.57;3.03;;;;;;;;;;5028761;28;20210;-76